Terminal Aerodrome Forecast
Issued by NWS Duluth, MN

Home | Current Version | Previous Version | Text Only | Print | Product List | Glossary On
Versions: 1 2 3 4 5 6 7 8 9 10 11 12 13 14 15 16 17 18 19 20 21 22 23 24 25
394
FTUS43 KDLH 250534
TAFDLH
TAF
KDLH 250534Z 2506/2606 08011KT 1/2SM FG VV002
     FM251400 10012KT 2SM BR OVC006
     FM251600 10013G18KT P6SM SCT015 BKN100
     FM252200 09012KT P6SM VCSH SCT012 BKN080
     FM260000 09014G18KT 5SM -SHRA BR BKN025 OVC060
     FM260300 10012KT 2SM -SHRA BR OVC012=

USA.gov is the U.S. government's official web portal to all federal, state and local government web resources and services.